Time;durP1;ratioP1;P1;durP2;ratioP2;P2;SDS_P1;SDS_P2;PMS_P1;PMS_P2;Temp;Humidity;BMP_temperature;BMP_pressure;BME280_temperature;BME280_humidity;BME280_pressure;Samples;Min_cycle;Max_cycle;Signal;HPM_P1;HPM_P2
2021/11/12 00:12:39;;;;;;;;;;;;;;;;;;5053054;28;19924;-75
2021/11/12 00:15:05;;;;;;;;;;;;;;;;;;5053472;28;19912;-75
2021/11/12 00:17:32;;;;;;;;;;;;;;;;;;5052900;28;20011;-75
2021/11/12 00:19:59;;;;;;;;;;;;;;;;;;5053207;28;19913;-76
2021/11/12 00:22:25;;;;;;;;;;;;;;;;;;5053201;28;19931;-75
2021/11/12 00:24:53;;;;;;;;;;;;;;;;;;5052919;28;20267;-75
2021/11/12 00:27:18;;;;;;;;;;;;;;;;;;5053088;28;19920;-76
2021/11/12 00:34:57;;;;;;;;;;;;;;;;;;5053045;28;19958;-76
2021/11/12 00:39:58;;;;;;;;;;;;;;;;;;5053154;28;20011;-75
2021/11/12 00:45:03;;;;;;;;;;;;;;;;;;5052774;28;19916;-75
2021/11/12 00:47:41;;;;;;;;;;;;;;;;;;5051560;28;19966;-75
2021/11/12 00:55:16;;;;;;;;;;;;;;;;;;5056684;28;19912;-75
2021/11/12 00:57:42;;;;;;;;;;;;;;;;;;5056748;28;20366;-75
2021/11/12 01:00:08;;;;;;;;;;;;;;;;;;5056639;28;19920;-76
2021/11/12 01:02:34;;;;;;;;;;;;;;;;;;5056371;28;20011;-75
2021/11/12 01:05:00;;;;;;;;;;;;;;;;;;5055926;28;19940;-75
2021/11/12 01:07:25;;;;;;;;;;;;;;;;;;5056187;28;20289;-75
2021/11/12 01:09:50;;;;;;;;;;;;;;;;;;5056336;28;20372;-75
2021/11/12 01:12:16;;;;;;;;;;;;;;;;;;5055951;28;20262;-75
2021/11/12 01:14:41;;;;;;;;;;;;;;;;;;5056263;28;19916;-75
2021/11/12 01:17:07;;;;;;;;;;;;;;;;;;5056244;28;19920;-75
2021/11/12 01:19:32;;;;;;;;;;;;;;;;;;5055881;28;20255;-76
2021/11/12 01:21:57;;;;;;;;;;;;;;;;;;5056042;28;19917;-75
2021/11/12 01:24:23;;;;;;;;;;;;;;;;;;5056025;28;19920;-75
2021/11/12 01:26:48;;;;;;;;;;;;;;;;;;5055035;28;19912;-75
2021/11/12 01:29:14;;;;;;;;;;;;;;;;;;5055878;28;19978;-75
2021/11/12 01:31:39;;;;;;;;;;;;;;;;;;5055839;28;20279;-75
2021/11/12 01:34:08;;;;;;;;;;;;;;;;;;5055723;28;19919;-75
2021/11/12 01:36:37;;;;;;;;;;;;;;;;;;5055824;28;19962;-75
2021/11/12 01:39:07;;;;;;;;;;;;;;;;;;5055759;28;19955;-75
2021/11/12 01:41:33;;;;;;;;;;;;;;;;;;5055569;28;19916;-75
2021/11/12 01:44:00;;;;;;;;;;;;;;;;;;5055418;28;19916;-75
2021/11/12 01:46:39;;;;;;;;;;;;;;;;;;5054487;28;20003;-76
2021/11/12 01:49:13;;;;;;;;;;;;;;;;;;5055532;28;19913;-75
2021/11/12 01:51:44;;;;;;;;;;;;;;;;;;5037485;28;19960;-76
2021/11/12 01:54:24;;;;;;;;;;;;;;;;;;5055424;28;19912;-75
2021/11/12 01:59:20;;;;;;;;;;;;;;;;;;5055125;28;19966;-77
2021/11/12 02:01:50;;;;;;;;;;;;;;;;;;5055330;28;19916;-76
2021/11/12 02:04:17;;;;;;;;;;;;;;;;;;5054828;28;19913;-75
2021/11/12 02:06:43;;;;;;;;;;;;;;;;;;5055386;28;19916;-76
2021/11/12 02:09:20;;;;;;;;;;;;;;;;;;5054882;28;19936;-75
2021/11/12 02:11:46;;;;;;;;;;;;;;;;;;5054795;28;19917;-75
2021/11/12 02:14:13;;;;;;;;;;;;;;;;;;5054952;28;19917;-75
2021/11/12 02:16:46;;;;;;;;;;;;;;;;;;5055154;28;20019;-75
2021/11/12 02:19:12;;;;;;;;;;;;;;;;;;5054876;28;20332;-75
2021/11/12 02:21:47;;;;;;;;;;;;;;;;;;5054866;28;20053;-75
2021/11/12 02:24:14;;;;;;;;;;;;;;;;;;5053568;28;19951;-75
2021/11/12 02:26:43;;;;;;;;;;;;;;;;;;5054919;28;19917;-76
2021/11/12 02:29:10;;;;;;;;;;;;;;;;;;5053713;28;19919;-75
2021/11/12 02:31:36;;;;;;;;;;;;;;;;;;5054851;28;20003;-75
2021/11/12 02:34:06;;;;;;;;;;;;;;;;;;5054502;28;19998;-76
2021/11/12 02:36:31;;;;;;;;;;;;;;;;;;5054742;28;19919;-75
2021/11/12 02:38:57;;;;;;;;;;;;;;;;;;5054566;28;19912;-75
2021/11/12 02:41:23;;;;;;;;;;;;;;;;;;5054374;28;19916;-75
2021/11/12 02:43:49;;;;;;;;;;;;;;;;;;5054282;28;20261;-75
2021/11/12 02:46:19;;;;;;;;;;;;;;;;;;5054350;28;19913;-76
2021/11/12 02:48:45;;;;;;;;;;;;;;;;;;5054176;28;19913;-76
2021/11/12 02:51:12;;;;;;;;;;;;;;;;;;5054389;28;19917;-76
2021/11/12 02:53:38;;;;;;;;;;;;;;;;;;5054301;28;19927;-76
2021/11/12 02:56:06;;;;;;;;;;;;;;;;;;5054292;28;19912;-75
2021/11/12 02:58:32;;;;;;;;;;;;;;;;;;5053913;28;19978;-76
2021/11/12 03:00:58;;;;;;;;;;;;;;;;;;5054257;28;19913;-76
2021/11/12 03:03:23;;;;;;;;;;;;;;;;;;5054081;28;19913;-75
2021/11/12 03:05:49;;;;;;;;;;;;;;;;;;5054339;28;19913;-76
2021/11/12 03:08:14;;;;;;;;;;;;;;;;;;5053725;28;19908;-75
2021/11/12 03:10:39;;;;;;;;;;;;;;;;;;5053931;28;19912;-75
2021/11/12 03:13:05;;;;;;;;;;;;;;;;;;5053669;28;19916;-78
2021/11/12 03:15:31;;;;;;;;;;;;;;;;;;5054066;28;19913;-77
2021/11/12 03:17:58;;;;;;;;;;;;;;;;;;5053863;28;20370;-77
2021/11/12 03:20:24;;;;;;;;;;;;;;;;;;5055527;28;19913;-77
2021/11/12 03:22:55;;;;;;;;;;;;;;;;;;5055590;28;19912;-77
2021/11/12 03:25:39;;;;;;;;;;;;;;;;;;5053840;28;19912;-77
2021/11/12 03:31:00;;;;;;;;;;;;;;;;;;5056914;28;19919;-77
2021/11/12 04:00:52;;;;;;;;;;;;;;;;;;5053016;28;19927;-78
2021/11/12 04:06:05;;;;;;;;;;;;;;;;;;5074145;28;19967;-77
2021/11/12 05:11:15;;;;;;;;;;;;;;;;;;5038148;28;19913;-78
2021/11/12 05:25:56;;;;;;;;;;;;;;;;;;5038358;28;19959;-77
2021/11/12 05:44:05;;;;;;;;;;;;;;;;;;5076652;28;19917;-77
2021/11/12 05:46:40;;;;;;;;;;;;;;;;;;5075922;28;19912;-78
2021/11/12 05:52:00;;;;;;;;;;;;;;;;;;5075687;28;19917;-78
2021/11/12 05:57:11;;;;;;;;;;;;;;;;;;5076931;28;19919;-78
2021/11/12 05:59:36;;;;;;;;;;;;;;;;;;5076272;28;19935;-77
2021/11/12 06:02:04;;;;;;;;;;;;;;;;;;5075221;28;20366;-77
2021/11/12 06:04:30;;;;;;;;;;;;;;;;;;5062086;28;19913;-78
2021/11/12 06:06:55;;;;;;;;;;;;;;;;;;5055946;28;19920;-78
2021/11/12 06:09:21;;;;;;;;;;;;;;;;;;5055571;28;19908;-77
2021/11/12 06:11:50;;;;;;;;;;;;;;;;;;5056123;28;19921;-77
2021/11/12 06:14:16;;;;;;;;;;;;;;;;;;5055946;28;19912;-77
2021/11/12 06:16:41;;;;;;;;;;;;;;;;;;5055623;28;19920;-78
2021/11/12 06:19:06;;;;;;;;;;;;;;;;;;5055269;28;19999;-77
2021/11/12 06:21:32;;;;;;;;;;;;;;;;;;5055617;28;19917;-77
2021/11/12 06:23:58;;;;;;;;;;;;;;;;;;5055381;28;19956;-77
2021/11/12 06:26:24;;;;;;;;;;;;;;;;;;5054357;28;19967;-77
2021/11/12 06:28:50;;;;;;;;;;;;;;;;;;5053592;28;19927;-77
2021/11/12 06:31:19;;;;;;;;;;;;;;;;;;5054605;28;19919;-77
2021/11/12 06:33:45;;;;;;;;;;;;;;;;;;5046257;28;19916;-77
2021/11/12 06:36:10;;;;;;;;;;;;;;;;;;5035242;28;20282;-77
2021/11/12 06:38:37;;;;;;;;;;;;;;;;;;5035197;28;19913;-78
2021/11/12 06:41:07;;;;;;;;;;;;;;;;;;5034863;28;19999;-77
2021/11/12 06:49:28;;;;;;;;;;;;;;;;;;5034268;28;19913;-78
2021/11/12 06:51:53;;;;;;;;;;;;;;;;;;5033491;28;19917;-77
2021/11/12 06:54:19;;;;;;;;;;;;;;;;;;5034068;28;19920;-77
2021/11/12 06:56:44;;;;;;;;;;;;;;;;;;5034415;28;19935;-77
2021/11/12 06:59:10;;;;;;;;;;;;;;;;;;5034509;28;19995;-77
2021/11/12 07:01:35;;;;;;;;;;;;;;;;;;5034288;28;20401;-77
2021/11/12 07:04:01;;;;;;;;;;;;;;;;;;5053183;28;19912;-77
2021/11/12 07:06:26;;;;;;;;;;;;;;;;;;5073216;28;19912;-77
2021/11/12 07:08:52;;;;;;;;;;;;;;;;;;5074140;28;20009;-77
2021/11/12 07:11:17;;;;;;;;;;;;;;;;;;5074142;28;19920;-77
2021/11/12 07:13:43;;;;;;;;;;;;;;;;;;5073619;28;20382;-77
2021/11/12 07:16:08;;;;;;;;;;;;;;;;;;5074112;28;20274;-77
2021/11/12 07:18:34;;;;;;;;;;;;;;;;;;5074123;28;19919;-77
2021/11/12 07:20:59;;;;;;;;;;;;;;;;;;5072856;28;20381;-77
2021/11/12 07:23:26;;;;;;;;;;;;;;;;;;5073699;28;19912;-77
2021/11/12 07:25:51;;;;;;;;;;;;;;;;;;5073916;28;19913;-77
2021/11/12 07:28:18;;;;;;;;;;;;;;;;;;5073658;28;19919;-77
2021/11/12 07:30:44;;;;;;;;;;;;;;;;;;5073724;28;20277;-77
2021/11/12 07:33:12;;;;;;;;;;;;;;;;;;5067803;28;19920;-77
2021/11/12 07:35:45;;;;;;;;;;;;;;;;;;5034139;28;19917;-76
2021/11/12 07:38:14;;;;;;;;;;;;;;;;;;5033824;28;20279;-77
2021/11/12 07:46:10;;;;;;;;;;;;;;;;;;5033436;28;19962;-77
2021/11/12 07:48:35;;;;;;;;;;;;;;;;;;5033747;28;19913;-77
2021/11/12 07:51:01;;;;;;;;;;;;;;;;;;5033508;28;19913;-77
2021/11/12 07:53:26;;;;;;;;;;;;;;;;;;5035136;28;20252;-77
2021/11/12 07:55:53;;;;;;;;;;;;;;;;;;5033946;28;19913;-77
2021/11/12 07:58:19;;;;;;;;;;;;;;;;;;5033954;28;19913;-76
2021/11/12 08:00:45;;;;;;;;;;;;;;;;;;5035438;28;19913;-75
2021/11/12 08:03:11;;;;;;;;;;;;;;;;;;5042404;28;20259;-78
2021/11/12 08:05:39;;;;;;;;;;;;;;;;;;5079517;28;19912;-77
2021/11/12 08:08:08;;;;;;;;;;;;;;;;;;5080620;28;19938;-79
2021/11/12 08:10:38;;;;;;;;;;;;;;;;;;5082495;28;19957;-79
2021/11/12 08:13:11;;;;;;;;;;;;;;;;;;5083829;28;19917;-80
2021/11/12 08:21:18;;;;;;;;;;;;;;;;;;5086154;28;19912;-80
2021/11/12 08:24:05;;;;;;;;;;;;;;;;;;5085320;28;19912;-79
2021/11/12 08:26:39;;;;;;;;;;;;;;;;;;5081528;28;20026;-79
2021/11/12 08:29:18;;;;;;;;;;;;;;;;;;5080107;28;19919;-81
2021/11/12 08:34:17;;;;;;;;;;;;;;;;;;5080177;28;19957;-79
2021/11/12 08:36:54;;;;;;;;;;;;;;;;;;5079652;28;19916;-80
2021/11/12 08:47:27;;;;;;;;;;;;;;;;;;5078335;28;19912;-77
2021/11/12 08:49:32;;;;;;;;;;;;;;;;;;5075167;28;19948;-77
2021/11/12 08:51:59;;;;;;;;;;;;;;;;;;5077412;28;19912;-78
2021/11/12 08:54:28;;;;;;;;;;;;;;;;;;5079132;28;19916;-77
2021/11/12 08:56:54;;;;;;;;;;;;;;;;;;5078560;28;19920;-77
2021/11/12 08:59:19;;;;;;;;;;;;;;;;;;5080491;28;19912;-78
2021/11/12 09:01:45;;;;;;;;;;;;;;;;;;5078858;28;19912;-78
2021/11/12 09:04:10;;;;;;;;;;;;;;;;;;5068069;28;20294;-76
2021/11/12 09:06:36;;;;;;;;;;;;;;;;;;5056199;28;19913;-77
2021/11/12 09:09:01;;;;;;;;;;;;;;;;;;5056646;28;19916;-76
2021/11/12 09:11:28;;;;;;;;;;;;;;;;;;5055939;28;20326;-77
2021/11/12 09:14:00;;;;;;;;;;;;;;;;;;5055571;28;20416;-77
2021/11/12 09:16:33;;;;;;;;;;;;;;;;;;5060237;28;19923;-79
2021/11/12 09:18:59;;;;;;;;;;;;;;;;;;5060359;28;19935;-76
2021/11/12 09:21:26;;;;;;;;;;;;;;;;;;5057733;28;19912;-78
2021/11/12 09:23:51;;;;;;;;;;;;;;;;;;5057919;28;19927;-77
2021/11/12 09:26:17;;;;;;;;;;;;;;;;;;5056499;28;19999;-77
2021/11/12 09:28:42;;;;;;;;;;;;;;;;;;5058391;28;19916;-76
2021/11/12 09:31:10;;;;;;;;;;;;;;;;;;5055724;28;20344;-75
2021/11/12 09:33:36;;;;;;;;;;;;;;;;;;5055938;28;19913;-75
2021/11/12 09:36:02;;;;;;;;;;;;;;;;;;5055856;28;19912;-75
2021/11/12 09:38:27;;;;;;;;;;;;;;;;;;5054777;28;19909;-74
2021/11/12 09:40:54;;;;;;;;;;;;;;;;;;5055794;28;19920;-74
2021/11/12 09:43:19;;;;;;;;;;;;;;;;;;5055246;28;19924;-75
2021/11/12 09:45:45;;;;;;;;;;;;;;;;;;5055513;28;19912;-75
2021/11/12 09:48:11;;;;;;;;;;;;;;;;;;5055387;28;19966;-74
2021/11/12 09:50:36;;;;;;;;;;;;;;;;;;5055605;28;19913;-75
2021/11/12 09:53:02;;;;;;;;;;;;;;;;;;5055409;28;19921;-75
2021/11/12 09:55:28;;;;;;;;;;;;;;;;;;5055536;28;19912;-75
2021/11/12 09:57:54;;;;;;;;;;;;;;;;;;5055480;28;19966;-75
2021/11/12 10:00:21;;;;;;;;;;;;;;;;;;5054165;28;19916;-75
2021/11/12 10:02:49;;;;;;;;;;;;;;;;;;5053970;28;19962;-75
2021/11/12 10:05:49;;;;;;;;;;;;;;;;;;5055425;28;19927;-74
2021/11/12 10:08:22;;;;;;;;;;;;;;;;;;5013341;28;20276;-75
2021/11/12 10:10:49;;;;;;;;;;;;;;;;;;5048304;28;19946;-75
2021/11/12 10:13:20;;;;;;;;;;;;;;;;;;5054930;28;19917;-75
2021/11/12 10:15:50;;;;;;;;;;;;;;;;;;5055090;28;19913;-75
2021/11/12 10:18:16;;;;;;;;;;;;;;;;;;5055032;28;19959;-75
2021/11/12 10:20:55;;;;;;;;;;;;;;;;;;5055216;28;20343;-75
2021/11/12 10:23:20;;;;;;;;;;;;;;;;;;5054835;28;19952;-75
2021/11/12 10:26:12;;;;;;;;;;;;;;;;;;5053937;28;19956;-75
2021/11/12 10:28:42;;;;;;;;;;;;;;;;;;5052695;28;20003;-74
2021/11/12 10:31:15;;;;;;;;;;;;;;;;;;5054793;28;19935;-75
2021/11/12 10:33:40;;;;;;;;;;;;;;;;;;5054853;28;20317;-75
2021/11/12 10:36:07;;;;;;;;;;;;;;;;;;5054723;28;19939;-75
2021/11/12 10:38:36;;;;;;;;;;;;;;;;;;5054769;28;19966;-75
2021/11/12 10:41:12;;;;;;;;;;;;;;;;;;5054714;28;19999;-75
2021/11/12 10:43:37;;;;;;;;;;;;;;;;;;5054622;28;20393;-75
2021/11/12 10:46:06;;;;;;;;;;;;;;;;;;5054584;28;19939;-75
2021/11/12 10:48:31;;;;;;;;;;;;;;;;;;5054530;28;19913;-75
2021/11/12 10:51:11;;;;;;;;;;;;;;;;;;5054478;28;19916;-75
2021/11/12 10:53:52;;;;;;;;;;;;;;;;;;5054490;28;19917;-75
2021/11/12 10:56:19;;;;;;;;;;;;;;;;;;5054341;28;19952;-75
2021/11/12 10:59:04;;;;;;;;;;;;;;;;;;5054249;28;19924;-75
2021/11/12 11:01:30;;;;;;;;;;;;;;;;;;5054417;28;20011;-74
2021/11/12 11:04:12;;;;;;;;;;;;;;;;;;5054091;28;19967;-75
2021/11/12 11:06:37;;;;;;;;;;;;;;;;;;5054223;28;19913;-75
2021/11/12 11:09:03;;;;;;;;;;;;;;;;;;5053425;28;19916;-75
2021/11/12 11:11:35;;;;;;;;;;;;;;;;;;5054113;28;19927;-74
2021/11/12 11:14:01;;;;;;;;;;;;;;;;;;5054056;28;20338;-75
2021/11/12 11:16:28;;;;;;;;;;;;;;;;;;5054153;28;19919;-75
2021/11/12 11:18:56;;;;;;;;;;;;;;;;;;5053980;28;20259;-75
2021/11/12 11:23:48;;;;;;;;;;;;;;;;;;5053909;28;19966;-75
2021/11/12 11:26:15;;;;;;;;;;;;;;;;;;5053877;28;19912;-75
2021/11/12 11:28:40;;;;;;;;;;;;;;;;;;5053560;28;19920;-75
2021/11/12 11:31:07;;;;;;;;;;;;;;;;;;5053976;28;19912;-75
2021/11/12 11:33:33;;;;;;;;;;;;;;;;;;5052715;28;20286;-75
2021/11/12 11:36:00;;;;;;;;;;;;;;;;;;5053661;28;19955;-75
2021/11/12 11:38:27;;;;;;;;;;;;;;;;;;5053737;28;20422;-75
2021/11/12 11:40:53;;;;;;;;;;;;;;;;;;5053664;28;19969;-75
2021/11/12 11:43:18;;;;;;;;;;;;;;;;;;5053426;28;20336;-75
2021/11/12 11:45:47;;;;;;;;;;;;;;;;;;5053762;28;19913;-74
2021/11/12 11:48:13;;;;;;;;;;;;;;;;;;5053666;28;19963;-75
2021/11/12 11:50:48;;;;;;;;;;;;;;;;;;5052687;28;20267;-75
2021/11/12 11:53:30;;;;;;;;;;;;;;;;;;5053296;28;19916;-75
2021/11/12 11:56:11;;;;;;;;;;;;;;;;;;5053453;28;19913;-75
2021/11/12 11:58:42;;;;;;;;;;;;;;;;;;5053239;28;19912;-74
2021/11/12 12:01:24;;;;;;;;;;;;;;;;;;5053701;28;19912;-75
2021/11/12 12:03:50;;;;;;;;;;;;;;;;;;5053322;28;19912;-74
2021/11/12 12:06:18;;;;;;;;;;;;;;;;;;5053119;28;19919;-75
2021/11/12 12:08:51;;;;;;;;;;;;;;;;;;5053440;28;19920;-73
2021/11/12 12:11:20;;;;;;;;;;;;;;;;;;5053505;28;20394;-74
2021/11/12 12:13:46;;;;;;;;;;;;;;;;;;5053572;28;20019;-77
2021/11/12 12:16:11;;;;;;;;;;;;;;;;;;5054113;28;19956;-77
2021/11/12 12:18:47;;;;;;;;;;;;;;;;;;5053952;28;20430;-74
2021/11/12 12:21:24;;;;;;;;;;;;;;;;;;5053527;28;19955;-76
2021/11/12 12:41:43;;;;;;;;;;;;;;;;;;5044738;28;19920;-78
2021/11/12 13:22:44;;;;;;;;;;;;;;;;;;5056161;28;19913;-75
2021/11/12 13:25:11;;;;;;;;;;;;;;;;;;5056143;28;19913;-75
2021/11/12 13:27:37;;;;;;;;;;;;;;;;;;5056239;28;19920;-75
2021/11/12 13:30:04;;;;;;;;;;;;;;;;;;5056143;28;19920;-75
2021/11/12 13:32:34;;;;;;;;;;;;;;;;;;5055996;28;19913;-75
2021/11/12 13:34:59;;;;;;;;;;;;;;;;;;5054316;28;19920;-75
2021/11/12 13:37:27;;;;;;;;;;;;;;;;;;5055883;28;19917;-75
2021/11/12 13:40:04;;;;;;;;;;;;;;;;;;5055702;28;20500;-75
2021/11/12 13:42:37;;;;;;;;;;;;;;;;;;5055268;28;19924;-75
2021/11/12 13:45:10;;;;;;;;;;;;;;;;;;5055943;28;19913;-75
2021/11/12 13:47:35;;;;;;;;;;;;;;;;;;5055585;28;19912;-74
2021/11/12 13:50:03;;;;;;;;;;;;;;;;;;5055473;28;19935;-75
2021/11/12 13:52:33;;;;;;;;;;;;;;;;;;5055482;28;19924;-75
2021/11/12 13:55:03;;;;;;;;;;;;;;;;;;5055632;28;19935;-75
2021/11/12 13:57:28;;;;;;;;;;;;;;;;;;5055647;28;20303;-75
2021/11/12 13:59:59;;;;;;;;;;;;;;;;;;5055269;28;19913;-75
2021/11/12 14:02:28;;;;;;;;;;;;;;;;;;5055479;28;19912;-75
2021/11/12 14:04:54;;;;;;;;;;;;;;;;;;5055377;28;19963;-75
2021/11/12 14:07:21;;;;;;;;;;;;;;;;;;5055510;28;20382;-75
2021/11/12 14:10:07;;;;;;;;;;;;;;;;;;5055460;28;19920;-75
2021/11/12 14:12:32;;;;;;;;;;;;;;;;;;5055180;28;20421;-74
2021/11/12 14:15:04;;;;;;;;;;;;;;;;;;5055094;28;19913;-74
2021/11/12 14:17:31;;;;;;;;;;;;;;;;;;5055171;28;19913;-75
2021/11/12 14:20:16;;;;;;;;;;;;;;;;;;5055121;28;19920;-75
2021/11/12 14:22:50;;;;;;;;;;;;;;;;;;5055145;28;20282;-73
2021/11/12 14:27:57;;;;;;;;;;;;;;;;;;5055157;28;19912;-76
2021/11/12 14:38:16;;;;;;;;;;;;;;;;;;5055011;28;20427;-77
2021/11/12 14:45:58;;;;;;;;;;;;;;;;;;5059521;28;19913;-79
2021/11/12 14:48:29;;;;;;;;;;;;;;;;;;5067972;28;19916;-80
2021/11/12 14:51:18;;;;;;;;;;;;;;;;;;5060963;28;19919;-78
2021/11/12 14:56:16;;;;;;;;;;;;;;;;;;5060894;28;19913;-79
2021/11/12 14:58:47;;;;;;;;;;;;;;;;;;5062571;28;19974;-79
2021/11/12 15:01:14;;;;;;;;;;;;;;;;;;5064877;28;19919;-79
2021/11/12 15:03:44;;;;;;;;;;;;;;;;;;5058069;28;19913;-77
2021/11/12 15:06:10;;;;;;;;;;;;;;;;;;5057699;28;19943;-79
2021/11/12 15:08:43;;;;;;;;;;;;;;;;;;5057438;28;20027;-78
2021/11/12 15:11:09;;;;;;;;;;;;;;;;;;5057258;28;19935;-77
2021/11/12 15:13:36;;;;;;;;;;;;;;;;;;5058140;28;19913;-81
2021/11/12 15:16:07;;;;;;;;;;;;;;;;;;5062016;28;19919;-80
2021/11/12 15:18:33;;;;;;;;;;;;;;;;;;5061289;28;20290;-77
2021/11/12 15:20:59;;;;;;;;;;;;;;;;;;5058968;28;20286;-77
2021/11/12 15:26:29;;;;;;;;;;;;;;;;;;5055911;28;19916;-75
2021/11/12 15:34:27;;;;;;;;;;;;;;;;;;5053348;28;19916;-76
2021/11/12 15:39:33;;;;;;;;;;;;;;;;;;5053747;28;19920;-74
2021/11/12 15:44:39;;;;;;;;;;;;;;;;;;5053708;28;20389;-73
2021/11/12 15:47:08;;;;;;;;;;;;;;;;;;5052792;28;19963;-73
2021/11/12 15:49:36;;;;;;;;;;;;;;;;;;5053712;28;19970;-73
2021/11/12 15:52:06;;;;;;;;;;;;;;;;;;5053589;28;19923;-74
2021/11/12 16:00:10;;;;;;;;;;;;;;;;;;5053482;28;19963;-73
2021/11/12 16:08:27;;;;;;;;;;;;;;;;;;5053475;28;19917;-73
2021/11/12 16:11:14;;;;;;;;;;;;;;;;;;5053380;28;19917;-72
2021/11/12 16:16:27;;;;;;;;;;;;;;;;;;5053353;28;20390;-73
2021/11/12 16:26:22;;;;;;;;;;;;;;;;;;5057254;28;19939;-72
2021/11/12 16:31:28;;;;;;;;;;;;;;;;;;5057291;28;19917;-72
2021/11/12 16:33:54;;;;;;;;;;;;;;;;;;5056981;28;19917;-73
2021/11/12 16:36:20;;;;;;;;;;;;;;;;;;5056880;28;20328;-72
2021/11/12 16:38:45;;;;;;;;;;;;;;;;;;5056936;28;19912;-73
2021/11/12 16:41:17;;;;;;;;;;;;;;;;;;5057002;28;19929;-72
2021/11/12 16:51:33;;;;;;;;;;;;;;;;;;5056756;28;19931;-77
2021/11/12 16:59:28;;;;;;;;;;;;;;;;;;5056453;28;19913;-74
2021/11/12 17:04:47;;;;;;;;;;;;;;;;;;5056989;28;20358;-78
2021/11/12 17:10:18;;;;;;;;;;;;;;;;;;5062540;28;20366;-78
2021/11/12 17:13:04;;;;;;;;;;;;;;;;;;5056730;28;19917;-76
2021/11/12 17:21:17;;;;;;;;;;;;;;;;;;5058977;28;19920;-84
2021/11/12 17:48:09;;;;;;;;;;;;;;;;;;5063467;28;20010;-79
2021/11/12 17:50:56;;;;;;;;;;;;;;;;;;5060975;28;20006;-77
2021/11/12 18:06:45;;;;;;;;;;;;;;;;;;5075996;28;19919;-76
2021/11/12 18:09:43;;;;;;;;;;;;;;;;;;5074099;28;20262;-77
2021/11/12 18:14:52;;;;;;;;;;;;;;;;;;5055425;28;19919;-76
2021/11/12 18:18:46;;;;;;;;;;;;;;;;;;5053400;28;19966;-76
2021/11/12 18:22:51;;;;;;;;;;;;;;;;;;5054820;28;20326;-76
2021/11/12 21:45:37;;;;;;;;;;;;;;;;;;5055002;28;19917;-76
2021/11/12 21:48:03;;;;;;;;;;;;;;;;;;5054727;28;19939;-76
2021/11/12 21:50:31;;;;;;;;;;;;;;;;;;5055871;28;20359;-76
2021/11/12 21:52:57;;;;;;;;;;;;;;;;;;5055382;28;19924;-76
2021/11/12 21:55:22;;;;;;;;;;;;;;;;;;5055224;28;20278;-77
2021/11/12 21:57:47;;;;;;;;;;;;;;;;;;5055519;28;19916;-77
2021/11/12 22:00:13;;;;;;;;;;;;;;;;;;5055534;28;20257;-76
2021/11/12 22:02:39;;;;;;;;;;;;;;;;;;5055026;28;19912;-78
2021/11/12 22:05:05;;;;;;;;;;;;;;;;;;5055654;28;19909;-76
2021/11/12 22:07:30;;;;;;;;;;;;;;;;;;5055482;28;19912;-76
2021/11/12 22:09:55;;;;;;;;;;;;;;;;;;5054286;28;19979;-76
2021/11/12 22:12:21;;;;;;;;;;;;;;;;;;5055087;28;19924;-76
2021/11/12 22:14:46;;;;;;;;;;;;;;;;;;5054311;28;19913;-76
2021/11/12 22:17:13;;;;;;;;;;;;;;;;;;5055217;28;20389;-76
2021/11/12 22:19:38;;;;;;;;;;;;;;;;;;5054973;28;19919;-76
2021/11/12 22:22:04;;;;;;;;;;;;;;;;;;5054946;28;19913;-76
2021/11/12 22:24:29;;;;;;;;;;;;;;;;;;5054807;28;19916;-76
2021/11/12 22:26:55;;;;;;;;;;;;;;;;;;5053770;28;19916;-76
2021/11/12 22:29:23;;;;;;;;;;;;;;;;;;5055098;28;19913;-75
2021/11/12 22:31:48;;;;;;;;;;;;;;;;;;5055075;28;19913;-76
2021/11/12 22:34:14;;;;;;;;;;;;;;;;;;5054843;28;19920;-76
2021/11/12 22:36:39;;;;;;;;;;;;;;;;;;5053674;28;19912;-76
2021/11/12 22:39:08;;;;;;;;;;;;;;;;;;5054557;28;19920;-76
2021/11/12 22:41:34;;;;;;;;;;;;;;;;;;5054505;28;19923;-76
2021/11/12 22:43:59;;;;;;;;;;;;;;;;;;5053361;28;20347;-76
2021/11/12 22:46:28;;;;;;;;;;;;;;;;;;5054761;28;19923;-76
2021/11/12 22:48:54;;;;;;;;;;;;;;;;;;5054386;28;19913;-75
2021/11/12 22:51:20;;;;;;;;;;;;;;;;;;5053544;28;19917;-76
2021/11/12 22:53:45;;;;;;;;;;;;;;;;;;5054174;28;20378;-76
2021/11/12 22:56:10;;;;;;;;;;;;;;;;;;5054620;28;20283;-76
2021/11/12 22:58:40;;;;;;;;;;;;;;;;;;5054423;28;19912;-76
2021/11/12 23:01:08;;;;;;;;;;;;;;;;;;5054429;28;19962;-76
2021/11/12 23:03:34;;;;;;;;;;;;;;;;;;5054200;28;20351;-76
2021/11/12 23:06:02;;;;;;;;;;;;;;;;;;5054386;28;19912;-76
2021/11/12 23:08:27;;;;;;;;;;;;;;;;;;5053867;28;19999;-76
2021/11/12 23:10:52;;;;;;;;;;;;;;;;;;5054379;28;19917;-76
2021/11/12 23:13:18;;;;;;;;;;;;;;;;;;5053940;28;19963;-76
2021/11/12 23:15:44;;;;;;;;;;;;;;;;;;5053828;28;19934;-76
2021/11/12 23:18:10;;;;;;;;;;;;;;;;;;5053586;28;20522;-76
2021/11/12 23:20:35;;;;;;;;;;;;;;;;;;5053971;28;19917;-76
2021/11/12 23:23:00;;;;;;;;;;;;;;;;;;5053733;28;19943;-76
2021/11/12 23:25:26;;;;;;;;;;;;;;;;;;5053378;28;19920;-76
2021/11/12 23:27:51;;;;;;;;;;;;;;;;;;5052770;28;19913;-76
2021/11/12 23:30:16;;;;;;;;;;;;;;;;;;5052573;28;19940;-76
2021/11/12 23:32:42;;;;;;;;;;;;;;;;;;5053152;28;19963;-76
2021/11/12 23:35:07;;;;;;;;;;;;;;;;;;5053582;28;19913;-76
2021/11/12 23:37:33;;;;;;;;;;;;;;;;;;5053444;28;19924;-76
2021/11/12 23:39:58;;;;;;;;;;;;;;;;;;5053798;28;19912;-76
2021/11/12 23:42:24;;;;;;;;;;;;;;;;;;5035063;28;19917;-77
2021/11/12 23:44:49;;;;;;;;;;;;;;;;;;5033593;28;20359;-76
2021/11/12 23:47:14;;;;;;;;;;;;;;;;;;5033822;28;19913;-76
2021/11/12 23:49:40;;;;;;;;;;;;;;;;;;5032675;28;20011;-76
2021/11/12 23:52:05;;;;;;;;;;;;;;;;;;5033511;28;19924;-76
2021/11/12 23:54:31;;;;;;;;;;;;;;;;;;5033568;28;19920;-76
2021/11/12 23:56:56;;;;;;;;;;;;;;;;;;5033763;28;19913;-76
2021/11/12 23:59:22;;;;;;;;;;;;;;;;;;5033460;28;19920;-76
